Flight Number: AVA3141 Duration: 1:15
Departure: Pampa Grande (SPJB) at 01:00 Distance: 365.121 Nm
Arrival: Iquitos (SPQT) at 02:15 Equipment: B1900D

Weather Information
404 Not Found

Not Found

The requested URL /data/observations/metar/decoded/SPJB.TXT was not found on this server.


Sunrise: 11:16 Sunset: 23:07 (UTC)

Iquitos, Peru (SPQT) 03-45S 073-15W 126M Apr 14, 2024 - 11:00 PM EDT / 2024.04.15 0300 UTC
Wind: Variable at 1 MPH (1 KT):0
Visibility: greater than 7 mile(s):0
Sky conditions: mostly cloudy Temperature: 77 F (25 C) Dew Point: 75 F (24 C) Relative Humidity: 94% Pressure (altimeter): 29.77 in. Hg (1008 hPa)
ob: SPQT 150300Z VRB01KT 9999 FEW005 BKN100 25/24 Q1008 NOSIG RMK PP000 cycle: 3
Sunrise: 10:54 Sunset: 22:51 (UTC)

TAF:2024/04/14 18:33 TAF SPQT 141700Z 1418/1518 VRB05KT 9999 SCT020 SCT100 TX34/1419Z TN23/1511Z TEMPO 1420/1424 06015KT 4000 TSRA BKN008 FEW025CB BKN080 TEMPO 1508/1512 4000 BCFG BKN003 BKN080

This route has never been flown.

Route map